sensor_id;sensor_type;location;lat;lon;timestamp;pressure;altitude;pressure_sealevel;temperature;humidity
63582;BME280;49727;51.078;17.066;2022-07-22T00:06:36;100281.44;;;26.26;44.34
63582;BME280;49727;51.078;17.066;2022-07-22T00:21:37;100286.34;;;26.29;44.62
63582;BME280;49727;51.078;17.066;2022-07-22T00:36:37;100282.81;;;26.24;44.45
63582;BME280;49727;51.078;17.066;2022-07-22T00:51:38;100274.03;;;26.01;44.90
63582;BME280;49727;51.078;17.066;2022-07-22T01:06:39;100297.16;;;25.78;45.15
63582;BME280;49727;51.078;17.066;2022-07-22T01:21:44;100316.47;;;25.03;46.52
63582;BME280;49727;51.078;17.066;2022-07-22T01:36:45;100321.06;;;24.59;48.33
63582;BME280;49727;51.078;17.066;2022-07-22T01:51:45;100318.47;;;24.10;48.63
63582;BME280;49727;51.078;17.066;2022-07-22T02:06:45;100316.50;;;23.34;50.19
63582;BME280;49727;51.078;17.066;2022-07-22T02:21:46;100356.09;;;22.73;51.92
63582;BME280;49727;51.078;17.066;2022-07-22T02:36:46;100391.19;;;22.17;53.53
63582;BME280;49727;51.078;17.066;2022-07-22T03:06:48;100479.00;;;21.16;58.61
63582;BME280;49727;51.078;17.066;2022-07-22T03:21:48;100421.84;;;21.06;60.42
63582;BME280;49727;51.078;17.066;2022-07-22T03:36:49;100361.06;;;21.25;62.02
63582;BME280;49727;51.078;17.066;2022-07-22T03:51:49;100328.09;;;21.28;63.92
63582;BME280;49727;51.078;17.066;2022-07-22T04:06:49;100307.94;;;21.36;64.76
63582;BME280;49727;51.078;17.066;2022-07-22T04:21:51;100301.81;;;21.41;65.68
63582;BME280;49727;51.078;17.066;2022-07-22T04:36:51;100284.94;;;21.62;66.19
63582;BME280;49727;51.078;17.066;2022-07-22T04:51:52;100302.94;;;21.69;66.01
63582;BME280;49727;51.078;17.066;2022-07-22T05:06:52;100318.31;;;21.80;66.46
63582;BME280;49727;51.078;17.066;2022-07-22T05:21:52;100323.75;;;22.38;66.02
63582;BME280;49727;51.078;17.066;2022-07-22T05:36:53;100338.91;;;23.07;64.87
63582;BME280;49727;51.078;17.066;2022-07-22T05:51:53;100357.84;;;23.80;63.02
63582;BME280;49727;51.078;17.066;2022-07-22T06:06:54;100364.75;;;24.15;61.49
63582;BME280;49727;51.078;17.066;2022-07-22T06:21:55;100366.81;;;24.90;60.13
63582;BME280;49727;51.078;17.066;2022-07-22T06:36:55;100356.81;;;26.22;55.24
63582;BME280;49727;51.078;17.066;2022-07-22T06:51:55;100357.13;;;26.82;52.88
63582;BME280;49727;51.078;17.066;2022-07-22T07:06:56;100361.72;;;26.61;52.13
63582;BME280;49727;51.078;17.066;2022-07-22T07:21:56;100364.34;;;27.54;50.38
63582;BME280;49727;51.078;17.066;2022-07-22T07:36:56;100374.13;;;28.65;47.05
63582;BME280;49727;51.078;17.066;2022-07-22T07:51:58;100371.41;;;28.60;45.58
63582;BME280;49727;51.078;17.066;2022-07-22T08:06:58;100366.81;;;28.50;45.11
63582;BME280;49727;51.078;17.066;2022-07-22T08:21:58;100356.56;;;29.93;42.38
63582;BME280;49727;51.078;17.066;2022-07-22T08:36:59;100364.88;;;30.26;41.50
63582;BME280;49727;51.078;17.066;2022-07-22T08:51:59;100371.38;;;31.29;39.00
63582;BME280;49727;51.078;17.066;2022-07-22T09:06:59;100364.38;;;32.01;37.91
63582;BME280;49727;51.078;17.066;2022-07-22T09:22:00;100357.84;;;33.59;34.75
63582;BME280;49727;51.078;17.066;2022-07-22T09:37:01;100354.19;;;33.90;32.22
63582;BME280;49727;51.078;17.066;2022-07-22T09:52:02;100349.59;;;34.64;31.37
63582;BME280;49727;51.078;17.066;2022-07-22T10:07:03;100334.28;;;35.14;30.35
63582;BME280;49727;51.078;17.066;2022-07-22T10:22:03;100328.34;;;33.77;29.58
63582;BME280;49727;51.078;17.066;2022-07-22T10:52:34;100307.03;;;33.95;28.15
63582;BME280;49727;51.078;17.066;2022-07-22T11:07:43;100299.94;;;35.66;27.20
63582;BME280;49727;51.078;17.066;2022-07-22T11:22:46;100288.84;;;36.08;25.94
63582;BME280;49727;51.078;17.066;2022-07-22T11:37:55;100267.53;;;35.67;24.83
63582;BME280;49727;51.078;17.066;2022-07-22T11:52:56;100259.28;;;36.46;23.44
63582;BME280;49727;51.078;17.066;2022-07-22T12:07:56;100247.66;;;35.44;24.21
63582;BME280;49727;51.078;17.066;2022-07-22T12:22:58;100239.75;;;35.97;23.46
63582;BME280;49727;51.078;17.066;2022-07-22T12:38:07;100220.47;;;36.58;22.96
63582;BME280;49727;51.078;17.066;2022-07-22T12:53:10;100215.28;;;34.75;24.34
63582;BME280;49727;51.078;17.066;2022-07-22T13:08:10;100204.19;;;34.46;24.57
63582;BME280;49727;51.078;17.066;2022-07-22T13:23:11;100200.31;;;34.77;24.55
63582;BME280;49727;51.078;17.066;2022-07-22T13:38:11;100194.59;;;36.08;23.81
63582;BME280;49727;51.078;17.066;2022-07-22T13:53:12;100179.28;;;35.56;23.71
63582;BME280;49727;51.078;17.066;2022-07-22T14:08:12;100188.31;;;34.25;24.98
63582;BME280;49727;51.078;17.066;2022-07-22T14:23:14;100176.78;;;34.23;25.85
63582;BME280;49727;51.078;17.066;2022-07-22T14:38:16;100164.91;;;34.22;26.17
63582;BME280;49727;51.078;17.066;2022-07-22T14:53:18;100165.91;;;34.18;25.90
63582;BME280;49727;51.078;17.066;2022-07-22T15:08:18;100146.50;;;33.53;26.40
63582;BME280;49727;51.078;17.066;2022-07-22T15:23:19;100148.94;;;33.19;27.37
63582;BME280;49727;51.078;17.066;2022-07-22T15:38:20;100131.88;;;33.00;27.56
63582;BME280;49727;51.078;17.066;2022-07-22T15:53:20;100128.44;;;32.94;28.20
63582;BME280;49727;51.078;17.066;2022-07-22T16:08:21;100117.25;;;32.82;28.04
63582;BME280;49727;51.078;17.066;2022-07-22T16:23:21;100121.44;;;32.70;28.87
63582;BME280;49727;51.078;17.066;2022-07-22T16:38:21;100116.03;;;32.56;28.72
63582;BME280;49727;51.078;17.066;2022-07-22T16:53:22;100114.53;;;32.42;29.03
63582;BME280;49727;51.078;17.066;2022-07-22T17:08:22;100116.88;;;31.94;29.80
63582;BME280;49727;51.078;17.066;2022-07-22T17:23:23;100112.03;;;31.68;29.99
63582;BME280;49727;51.078;17.066;2022-07-22T17:38:23;100122.28;;;31.54;30.44
63582;BME280;49727;51.078;17.066;2022-07-22T17:53:24;100123.97;;;31.41;30.68
63582;BME280;49727;51.078;17.066;2022-07-22T18:08:24;100136.22;;;30.98;31.39
63582;BME280;49727;51.078;17.066;2022-07-22T18:23:24;100137.53;;;30.03;33.43
63582;BME280;49727;51.078;17.066;2022-07-22T18:38:25;100134.81;;;29.32;35.70
63582;BME280;49727;51.078;17.066;2022-07-22T18:53:25;100144.91;;;28.75;37.10
63582;BME280;49727;51.078;17.066;2022-07-22T19:08:26;100158.72;;;28.35;37.73
63582;BME280;49727;51.078;17.066;2022-07-22T19:23:27;100171.66;;;28.05;38.63
63582;BME280;49727;51.078;17.066;2022-07-22T19:38:27;100175.47;;;27.69;39.26
63582;BME280;49727;51.078;17.066;2022-07-22T19:53:28;100176.44;;;26.94;40.98
63582;BME280;49727;51.078;17.066;2022-07-22T20:08:28;100192.41;;;26.46;42.15
63582;BME280;49727;51.078;17.066;2022-07-22T20:23:28;100190.22;;;26.48;42.94
63582;BME280;49727;51.078;17.066;2022-07-22T20:38:29;100208.25;;;26.39;43.27
63582;BME280;49727;51.078;17.066;2022-07-22T20:53:29;100204.72;;;26.02;43.67
63582;BME280;49727;51.078;17.066;2022-07-22T21:08:29;100202.78;;;25.56;44.73
63582;BME280;49727;51.078;17.066;2022-07-22T21:23:30;100213.56;;;25.25;45.83
63582;BME280;49727;51.078;17.066;2022-07-22T21:38:32;100218.97;;;25.20;46.17
63582;BME280;49727;51.078;17.066;2022-07-22T21:53:32;100224.38;;;25.05;46.92
63582;BME280;49727;51.078;17.066;2022-07-22T22:08:32;100236.06;;;24.95;47.11
63582;BME280;49727;51.078;17.066;2022-07-22T22:23:33;100223.41;;;24.73;47.31
63582;BME280;49727;51.078;17.066;2022-07-22T22:38:33;100232.72;;;24.45;48.16
63582;BME280;49727;51.078;17.066;2022-07-22T22:53:34;100237.53;;;23.95;48.98
63582;BME280;49727;51.078;17.066;2022-07-22T23:08:34;100235.00;;;23.39;50.17
63582;BME280;49727;51.078;17.066;2022-07-22T23:23:35;100238.81;;;23.38;50.70
63582;BME280;49727;51.078;17.066;2022-07-22T23:38:35;100227.75;;;23.22;51.38
63582;BME280;49727;51.078;17.066;2022-07-22T23:53:36;100213.06;;;23.01;51.99
